sensor_id;sensor_type;location;lat;lon;timestamp;pressure;altitude;pressure_sealevel;temperature;humidity
31121;BME280;17770;45.966;13.632;2023-05-23T00:00:44;100255.16;;;28.24;50.49
31121;BME280;17770;45.966;13.632;2023-05-23T00:03:10;100261.44;;;28.23;50.21
31121;BME280;17770;45.966;13.632;2023-05-23T00:05:35;100256.13;;;28.23;50.06
31121;BME280;17770;45.966;13.632;2023-05-23T00:08:02;100255.66;;;28.20;50.45
31121;BME280;17770;45.966;13.632;2023-05-23T00:27:25;100245.13;;;28.10;50.29
31121;BME280;17770;45.966;13.632;2023-05-23T00:29:51;100251.44;;;28.09;50.33
31121;BME280;17770;45.966;13.632;2023-05-23T00:32:16;100249.78;;;28.08;49.94
31121;BME280;17770;45.966;13.632;2023-05-23T00:34:42;100239.31;;;28.06;50.25
31121;BME280;17770;45.966;13.632;2023-05-23T00:37:09;100243.97;;;28.04;50.06
31121;BME280;17770;45.966;13.632;2023-05-23T00:39:36;100248.44;;;28.04;50.04
31121;BME280;17770;45.966;13.632;2023-05-23T00:42:03;100241.47;;;28.03;50.26
31121;BME280;17770;45.966;13.632;2023-05-23T00:44:29;100250.41;;;28.02;50.27
31121;BME280;17770;45.966;13.632;2023-05-23T00:46:55;100244.25;;;28.01;50.11
31121;BME280;17770;45.966;13.632;2023-05-23T00:49:22;100249.72;;;28.00;50.18
31121;BME280;17770;45.966;13.632;2023-05-23T00:51:48;100239.28;;;27.98;49.88
31121;BME280;17770;45.966;13.632;2023-05-23T00:54:14;100244.00;;;27.87;50.29
31121;BME280;17770;45.966;13.632;2023-05-23T00:56:43;100240.34;;;27.80;50.42
31121;BME280;17770;45.966;13.632;2023-05-23T00:59:09;100245.13;;;27.76;50.54
31121;BME280;17770;45.966;13.632;2023-05-23T01:01:34;100240.78;;;27.75;50.51
31121;BME280;17770;45.966;13.632;2023-05-23T01:04:02;100230.50;;;27.72;50.50
31121;BME280;17770;45.966;13.632;2023-05-23T01:06:29;100234.00;;;27.73;50.26
31121;BME280;17770;45.966;13.632;2023-05-23T01:08:55;100240.28;;;27.72;50.22
31121;BME280;17770;45.966;13.632;2023-05-23T01:11:27;100239.47;;;27.71;50.60
31121;BME280;17770;45.966;13.632;2023-05-23T01:13:57;100229.03;;;27.70;50.41
31121;BME280;17770;45.966;13.632;2023-05-23T01:17:10;100237.13;;;27.68;50.79
31121;BME280;17770;45.966;13.632;2023-05-23T01:19:25;100237.41;;;27.65;50.62
31121;BME280;17770;45.966;13.632;2023-05-23T01:21:54;100239.25;;;27.65;50.40
31121;BME280;17770;45.966;13.632;2023-05-23T01:24:28;100240.22;;;27.64;50.32
31121;BME280;17770;45.966;13.632;2023-05-23T01:27:08;100243.03;;;27.62;50.56
31121;BME280;17770;45.966;13.632;2023-05-23T01:29:45;100238.75;;;27.61;50.52
31121;BME280;17770;45.966;13.632;2023-05-23T01:32:11;100230.94;;;27.60;50.36
31121;BME280;17770;45.966;13.632;2023-05-23T01:34:38;100233.75;;;27.58;50.46
31121;BME280;17770;45.966;13.632;2023-05-23T01:37:08;100234.56;;;27.59;50.65
31121;BME280;17770;45.966;13.632;2023-05-23T01:39:35;100238.22;;;27.58;50.47
31121;BME280;17770;45.966;13.632;2023-05-23T01:42:01;100244.81;;;27.54;50.48
31121;BME280;17770;45.966;13.632;2023-05-23T01:44:28;100241.34;;;27.53;50.67
31121;BME280;17770;45.966;13.632;2023-05-23T01:46:54;100233.41;;;27.53;50.63
31121;BME280;17770;45.966;13.632;2023-05-23T01:49:21;100228.25;;;27.52;50.26
31121;BME280;17770;45.966;13.632;2023-05-23T01:51:47;100230.91;;;27.52;50.38
31121;BME280;17770;45.966;13.632;2023-05-23T01:54:14;100232.72;;;27.51;50.35
31121;BME280;17770;45.966;13.632;2023-05-23T01:56:41;100230.22;;;27.50;50.29
31121;BME280;17770;45.966;13.632;2023-05-23T01:59:08;100231.34;;;27.47;50.12
31121;BME280;17770;45.966;13.632;2023-05-23T02:01:34;100223.56;;;27.46;50.33
31121;BME280;17770;45.966;13.632;2023-05-23T02:04:00;100223.56;;;27.46;50.17
31121;BME280;17770;45.966;13.632;2023-05-23T02:06:26;100232.50;;;27.45;50.55
31121;BME280;17770;45.966;13.632;2023-05-23T02:08:52;100229.03;;;27.44;50.23
31121;BME280;17770;45.966;13.632;2023-05-23T02:11:17;100226.38;;;27.44;50.66
31121;BME280;17770;45.966;13.632;2023-05-23T02:13:43;100221.22;;;27.43;50.16
31121;BME280;17770;45.966;13.632;2023-05-23T02:16:09;100225.84;;;27.41;50.27
31121;BME280;17770;45.966;13.632;2023-05-23T02:18:36;100218.06;;;27.39;50.46
31121;BME280;17770;45.966;13.632;2023-05-23T02:21:03;100227.00;;;27.38;50.14
31121;BME280;17770;45.966;13.632;2023-05-23T02:23:29;100218.22;;;27.38;50.46
31121;BME280;17770;45.966;13.632;2023-05-23T02:25:55;100221.03;;;27.36;50.17
31121;BME280;17770;45.966;13.632;2023-05-23T02:28:21;100225.63;;;27.34;50.20
31121;BME280;17770;45.966;13.632;2023-05-23T02:30:48;100216.84;;;27.34;50.38
31121;BME280;17770;45.966;13.632;2023-05-23T02:33:14;100217.00;;;27.32;50.47
31121;BME280;17770;45.966;13.632;2023-05-23T02:35:41;100215.34;;;27.31;50.29
31121;BME280;17770;45.966;13.632;2023-05-23T02:38:09;100207.56;;;27.30;50.00
31121;BME280;17770;45.966;13.632;2023-05-23T02:40:34;100212.88;;;27.30;49.91
31121;BME280;17770;45.966;13.632;2023-05-23T02:43:00;100199.06;;;27.26;50.26
31121;BME280;17770;45.966;13.632;2023-05-23T02:45:26;100203.53;;;27.26;50.28
31121;BME280;17770;45.966;13.632;2023-05-23T02:47:52;100206.16;;;27.26;49.90
31121;BME280;17770;45.966;13.632;2023-05-23T02:50:18;100215.13;;;27.25;50.21
31121;BME280;17770;45.966;13.632;2023-05-23T02:52:44;100213.47;;;27.24;50.04
31121;BME280;17770;45.966;13.632;2023-05-23T02:55:10;100213.47;;;27.24;49.95
31121;BME280;17770;45.966;13.632;2023-05-23T02:57:40;100206.63;;;27.21;50.15
31121;BME280;17770;45.966;13.632;2023-05-23T03:00:06;100212.09;;;27.20;50.14
31121;BME280;17770;45.966;13.632;2023-05-23T03:02:34;100217.41;;;27.20;50.08
31121;BME280;17770;45.966;13.632;2023-05-23T03:05:00;100213.91;;;27.19;50.24
31121;BME280;17770;45.966;13.632;2023-05-23T03:07:27;100206.97;;;27.18;50.27
31121;BME280;17770;45.966;13.632;2023-05-23T03:09:53;100214.22;;;27.16;50.13
31121;BME280;17770;45.966;13.632;2023-05-23T03:12:18;100206.44;;;27.15;50.13
31121;BME280;17770;45.966;13.632;2023-05-23T03:14:44;100210.72;;;27.16;49.98
31121;BME280;17770;45.966;13.632;2023-05-23T03:17:12;100200.44;;;27.13;49.78
31121;BME280;17770;45.966;13.632;2023-05-23T03:19:38;100206.75;;;27.12;50.24
31121;BME280;17770;45.966;13.632;2023-05-23T03:22:03;100201.59;;;27.10;49.77
31121;BME280;17770;45.966;13.632;2023-05-23T03:24:29;100201.75;;;27.09;49.96
31121;BME280;17770;45.966;13.632;2023-05-23T03:26:56;100199.13;;;27.09;50.31
31121;BME280;17770;45.966;13.632;2023-05-23T03:29:22;100199.13;;;27.09;49.69
31121;BME280;17770;45.966;13.632;2023-05-23T03:31:48;100201.91;;;27.07;49.96
31121;BME280;17770;45.966;13.632;2023-05-23T03:34:14;100203.72;;;27.07;49.89
31121;BME280;17770;45.966;13.632;2023-05-23T03:36:40;100198.44;;;27.07;49.76
31121;BME280;17770;45.966;13.632;2023-05-23T03:39:06;100201.38;;;27.04;50.27
31121;BME280;17770;45.966;13.632;2023-05-23T03:41:33;100198.91;;;27.02;49.77
31121;BME280;17770;45.966;13.632;2023-05-23T03:43:59;100195.41;;;27.02;49.86
31121;BME280;17770;45.966;13.632;2023-05-23T03:46:25;100200.03;;;27.00;49.63
31121;BME280;17770;45.966;13.632;2023-05-23T03:48:51;100201.97;;;26.98;50.14
31121;BME280;17770;45.966;13.632;2023-05-23T03:51:17;100201.97;;;26.98;49.65
31121;BME280;17770;45.966;13.632;2023-05-23T03:53:43;100203.97;;;26.96;49.97
31121;BME280;17770;45.966;13.632;2023-05-23T03:56:09;100207.44;;;26.96;49.91
31121;BME280;17770;45.966;13.632;2023-05-23T03:58:35;100204.94;;;26.94;49.95
31121;BME280;17770;45.966;13.632;2023-05-23T04:01:07;100202.44;;;26.93;50.02
31121;BME280;17770;45.966;13.632;2023-05-23T04:03:33;100201.59;;;26.92;49.77
31121;BME280;17770;45.966;13.632;2023-05-23T04:06:00;100200.66;;;26.93;49.75
31121;BME280;17770;45.966;13.632;2023-05-23T04:08:27;100209.56;;;26.92;49.62
31121;BME280;17770;45.966;13.632;2023-05-23T04:10:54;100215.69;;;26.93;49.70
31121;BME280;17770;45.966;13.632;2023-05-23T04:13:22;100214.19;;;26.90;49.70
31121;BME280;17770;45.966;13.632;2023-05-23T04:15:49;100211.53;;;26.90;49.68
31121;BME280;17770;45.966;13.632;2023-05-23T04:18:16;100219.66;;;26.89;49.91
31121;BME280;17770;45.966;13.632;2023-05-23T04:20:42;100215.31;;;26.88;49.69
31121;BME280;17770;45.966;13.632;2023-05-23T04:23:09;100216.31;;;26.87;49.47
31121;BME280;17770;45.966;13.632;2023-05-23T04:25:38;100215.47;;;26.86;49.49
31121;BME280;17770;45.966;13.632;2023-05-23T04:28:19;100214.63;;;26.86;49.54
31121;BME280;17770;45.966;13.632;2023-05-23T04:30:45;100215.63;;;26.85;49.51
31121;BME280;17770;45.966;13.632;2023-05-23T04:33:14;100215.78;;;26.83;49.56
31121;BME280;17770;45.966;13.632;2023-05-23T04:35:41;100215.09;;;26.81;49.58
31121;BME280;17770;45.966;13.632;2023-05-23T04:38:08;100210.78;;;26.80;49.57
31121;BME280;17770;45.966;13.632;2023-05-23T04:40:34;100210.19;;;26.86;49.48
31121;BME280;17770;45.966;13.632;2023-05-23T04:43:07;100208.75;;;26.92;49.14
31121;BME280;17770;45.966;13.632;2023-05-23T04:45:46;100207.31;;;26.80;49.67
31121;BME280;17770;45.966;13.632;2023-05-23T04:48:29;100209.28;;;26.78;49.37
31121;BME280;17770;45.966;13.632;2023-05-23T04:50:55;100203.59;;;26.73;49.55
31121;BME280;17770;45.966;13.632;2023-05-23T04:53:22;100204.44;;;26.73;49.40
31121;BME280;17770;45.966;13.632;2023-05-23T04:55:48;100204.75;;;26.70;49.33
31121;BME280;17770;45.966;13.632;2023-05-23T04:58:16;100200.41;;;26.69;49.27
31121;BME280;17770;45.966;13.632;2023-05-23T05:00:42;100199.59;;;26.69;49.14
31121;BME280;17770;45.966;13.632;2023-05-23T05:03:08;100202.25;;;26.69;48.92
31121;BME280;17770;45.966;13.632;2023-05-23T05:05:37;100204.22;;;26.67;48.87
31121;BME280;17770;45.966;13.632;2023-05-23T05:08:03;100201.56;;;26.67;48.70
31121;BME280;17770;45.966;13.632;2023-05-23T05:10:29;100193.63;;;26.67;48.53
31121;BME280;17770;45.966;13.632;2023-05-23T05:12:56;100195.56;;;26.65;48.76
31121;BME280;17770;45.966;13.632;2023-05-23T05:15:23;100198.34;;;26.63;48.39
31121;BME280;17770;45.966;13.632;2023-05-23T05:17:53;100205.44;;;26.63;48.74
31121;BME280;17770;45.966;13.632;2023-05-23T05:20:20;100198.50;;;26.62;48.67
31121;BME280;17770;45.966;13.632;2023-05-23T05:22:46;100195.19;;;26.60;49.00
31121;BME280;17770;45.966;13.632;2023-05-23T05:25:12;100189.88;;;26.60;48.69
31121;BME280;17770;45.966;13.632;2023-05-23T05:27:38;100190.03;;;26.58;48.82
31121;BME280;17770;45.966;13.632;2023-05-23T05:30:06;100197.28;;;26.56;48.97
31121;BME280;17770;45.966;13.632;2023-05-23T05:32:39;100199.13;;;26.56;48.55
31121;BME280;17770;45.966;13.632;2023-05-23T05:35:06;100201.78;;;26.56;48.66
31121;BME280;17770;45.966;13.632;2023-05-23T05:37:33;100188.66;;;26.54;49.05
31121;BME280;17770;45.966;13.632;2023-05-23T05:39:59;100189.50;;;26.55;48.59
31121;BME280;17770;45.966;13.632;2023-05-23T05:42:34;100190.50;;;26.54;48.44
31121;BME280;17770;45.966;13.632;2023-05-23T05:45:00;100185.38;;;26.52;48.41
31121;BME280;17770;45.966;13.632;2023-05-23T05:47:27;100184.66;;;26.50;49.13
31121;BME280;17770;45.966;13.632;2023-05-23T05:49:53;100190.97;;;26.49;48.94
31121;BME280;17770;45.966;13.632;2023-05-23T05:52:19;100185.13;;;26.46;48.80
31121;BME280;17770;45.966;13.632;2023-05-23T05:54:44;100186.09;;;26.45;48.88
31121;BME280;17770;45.966;13.632;2023-05-23T05:57:10;100187.94;;;26.44;48.54
31121;BME280;17770;45.966;13.632;2023-05-23T05:59:36;100185.28;;;26.44;48.64
31121;BME280;17770;45.966;13.632;2023-05-23T06:02:02;100185.41;;;26.43;48.15
31121;BME280;17770;45.966;13.632;2023-05-23T06:04:29;100187.25;;;26.42;48.49
31121;BME280;17770;45.966;13.632;2023-05-23T06:06:57;100183.75;;;26.42;48.37
31121;BME280;17770;45.966;13.632;2023-05-23T06:09:23;100182.91;;;26.41;48.74
31121;BME280;17770;45.966;13.632;2023-05-23T06:11:48;100186.56;;;26.40;47.93
31121;BME280;17770;45.966;13.632;2023-05-23T06:14:14;100177.94;;;26.38;48.39
31121;BME280;17770;45.966;13.632;2023-05-23T06:16:43;100169.31;;;26.36;47.92
31121;BME280;17770;45.966;13.632;2023-05-23T06:19:10;100166.81;;;26.35;48.00
31121;BME280;17770;45.966;13.632;2023-05-23T06:21:37;100175.91;;;26.32;48.14
31121;BME280;17770;45.966;13.632;2023-05-23T06:24:05;100182.16;;;26.31;48.00
31121;BME280;17770;45.966;13.632;2023-05-23T06:26:31;100179.50;;;26.31;47.83
31121;BME280;17770;45.966;13.632;2023-05-23T06:28:58;100186.63;;;26.31;47.56
31121;BME280;17770;45.966;13.632;2023-05-23T06:31:23;100185.94;;;26.29;47.59
31121;BME280;17770;45.966;13.632;2023-05-23T06:33:49;100185.09;;;26.28;47.92
31121;BME280;17770;45.966;13.632;2023-05-23T06:36:16;100183.28;;;26.29;47.70
31121;BME280;17770;45.966;13.632;2023-05-23T06:38:42;100180.66;;;26.29;47.72
31121;BME280;17770;45.966;13.632;2023-05-23T06:41:08;100183.28;;;26.29;47.77
31121;BME280;17770;45.966;13.632;2023-05-23T06:43:35;100184.28;;;26.28;47.25
31121;BME280;17770;45.966;13.632;2023-05-23T06:46:21;100179.97;;;26.27;47.23
31121;BME280;17770;45.966;13.632;2023-05-23T06:48:47;100180.97;;;26.26;47.21
31121;BME280;17770;45.966;13.632;2023-05-23T06:51:13;100179.97;;;26.27;47.32
31121;BME280;17770;45.966;13.632;2023-05-23T06:53:40;100178.31;;;26.26;47.57
31121;BME280;17770;45.966;13.632;2023-05-23T06:56:06;100170.38;;;26.26;47.36
31121;BME280;17770;45.966;13.632;2023-05-23T06:58:38;100175.81;;;26.24;47.51
31121;BME280;17770;45.966;13.632;2023-05-23T07:01:05;100175.81;;;26.24;47.55
31121;BME280;17770;45.966;13.632;2023-05-23T07:03:35;100169.53;;;26.25;47.58
31121;BME280;17770;45.966;13.632;2023-05-23T07:06:05;100177.31;;;26.27;47.15
31121;BME280;17770;45.966;13.632;2023-05-23T07:08:32;100180.81;;;26.27;47.08
31121;BME280;17770;45.966;13.632;2023-05-23T07:10:59;100177.16;;;26.28;47.07
31121;BME280;17770;45.966;13.632;2023-05-23T07:13:40;100177.16;;;26.28;47.23
31121;BME280;17770;45.966;13.632;2023-05-23T07:16:06;100179.00;;;26.28;47.38
31121;BME280;17770;45.966;13.632;2023-05-23T07:18:35;100177.16;;;26.28;47.62
31121;BME280;17770;45.966;13.632;2023-05-23T07:21:01;100176.19;;;26.29;47.66
31121;BME280;17770;45.966;13.632;2023-05-23T07:23:30;100179.66;;;26.30;47.34
31121;BME280;17770;45.966;13.632;2023-05-23T07:25:57;100186.63;;;26.31;47.39
31121;BME280;17770;45.966;13.632;2023-05-23T07:28:25;100178.53;;;26.32;47.23
31121;BME280;17770;45.966;13.632;2023-05-23T07:30:52;100174.09;;;26.33;47.26
31121;BME280;17770;45.966;13.632;2023-05-23T07:33:18;100179.06;;;26.36;47.08
31121;BME280;17770;45.966;13.632;2023-05-23T07:35:46;100170.16;;;26.37;47.61
31121;BME280;17770;45.966;13.632;2023-05-23T07:38:11;100168.34;;;26.37;47.59
31121;BME280;17770;45.966;13.632;2023-05-23T07:40:37;100174.16;;;26.41;47.03
31121;BME280;17770;45.966;13.632;2023-05-23T07:43:04;100168.41;;;26.45;47.07
31121;BME280;17770;45.966;13.632;2023-05-23T07:45:30;100166.78;;;26.44;47.28
31121;BME280;17770;45.966;13.632;2023-05-23T07:47:57;100168.41;;;26.45;47.19
31121;BME280;17770;45.966;13.632;2023-05-23T07:50:24;100168.25;;;26.47;47.29
31121;BME280;17770;45.966;13.632;2023-05-23T07:52:52;100170.91;;;26.47;47.15
31121;BME280;17770;45.966;13.632;2023-05-23T07:55:24;100166.47;;;26.47;47.42
31121;BME280;17770;45.966;13.632;2023-05-23T07:57:53;100170.59;;;26.50;47.38
31121;BME280;17770;45.966;13.632;2023-05-23T08:00:21;100163.50;;;26.50;47.50
31121;BME280;17770;45.966;13.632;2023-05-23T08:02:53;100167.00;;;26.51;47.40
31121;BME280;17770;45.966;13.632;2023-05-23T08:05:25;100162.34;;;26.53;47.59
31121;BME280;17770;45.966;13.632;2023-05-23T08:07:53;100158.75;;;26.54;47.20
31121;BME280;17770;45.966;13.632;2023-05-23T08:10:20;100158.75;;;26.54;47.46
31121;BME280;17770;45.966;13.632;2023-05-23T08:12:46;100158.59;;;26.55;47.46
31121;BME280;17770;45.966;13.632;2023-05-23T08:15:15;100155.78;;;26.57;47.79
31121;BME280;17770;45.966;13.632;2023-05-23T08:17:48;100155.63;;;26.58;47.42
31121;BME280;17770;45.966;13.632;2023-05-23T08:20:16;100156.47;;;26.59;47.70
31121;BME280;17770;45.966;13.632;2023-05-23T08:22:41;100155.47;;;26.60;47.77
31121;BME280;17770;45.966;13.632;2023-05-23T08:25:08;100153.69;;;26.60;47.37
31121;BME280;17770;45.966;13.632;2023-05-23T08:27:37;100153.38;;;26.63;47.74
31121;BME280;17770;45.966;13.632;2023-05-23T08:30:10;100150.72;;;26.63;47.50
31121;BME280;17770;45.966;13.632;2023-05-23T08:32:37;100144.59;;;26.63;47.61
31121;BME280;17770;45.966;13.632;2023-05-23T08:35:04;100156.72;;;26.65;47.50
31121;BME280;17770;45.966;13.632;2023-05-23T08:37:31;100148.78;;;26.65;47.70
31121;BME280;17770;45.966;13.632;2023-05-23T08:39:57;100150.28;;;26.68;47.73
31121;BME280;17770;45.966;13.632;2023-05-23T08:42:42;100148.47;;;26.68;47.60
31121;BME280;17770;45.966;13.632;2023-05-23T08:45:09;100144.84;;;26.69;47.52
31121;BME280;17770;45.966;13.632;2023-05-23T08:47:35;100149.00;;;26.72;47.96
31121;BME280;17770;45.966;13.632;2023-05-23T08:50:05;100146.22;;;26.73;48.13
31121;BME280;17770;45.966;13.632;2023-05-23T08:52:31;100148.69;;;26.75;48.27
31121;BME280;17770;45.966;13.632;2023-05-23T08:54:59;100143.25;;;26.76;48.30
31121;BME280;17770;45.966;13.632;2023-05-23T08:57:26;100146.59;;;26.78;48.25
31121;BME280;17770;45.966;13.632;2023-05-23T08:59:58;100145.59;;;26.79;48.16
31121;BME280;17770;45.966;13.632;2023-05-23T09:02:25;100149.91;;;26.80;48.44
31121;BME280;17770;45.966;13.632;2023-05-23T09:04:57;100145.16;;;26.84;48.37
31121;BME280;17770;45.966;13.632;2023-05-23T09:07:24;100152.94;;;26.85;48.15
31121;BME280;17770;45.966;13.632;2023-05-23T09:09:51;100158.88;;;26.87;48.43
31121;BME280;17770;45.966;13.632;2023-05-23T09:12:18;100153.31;;;26.90;48.09
31121;BME280;17770;45.966;13.632;2023-05-23T09:14:47;100143.38;;;26.92;48.00
31121;BME280;17770;45.966;13.632;2023-05-23T09:17:19;100143.38;;;26.92;48.29
31121;BME280;17770;45.966;13.632;2023-05-23T09:19:46;100144.06;;;26.94;48.69
31121;BME280;17770;45.966;13.632;2023-05-23T09:22:32;100139.59;;;26.95;48.58
31121;BME280;17770;45.966;13.632;2023-05-23T09:25:06;100145.41;;;26.99;48.56
31121;BME280;17770;45.966;13.632;2023-05-23T09:27:32;100138.16;;;27.01;48.01
31121;BME280;17770;45.966;13.632;2023-05-23T09:30:04;100140.31;;;27.05;48.23
31121;BME280;17770;45.966;13.632;2023-05-23T09:32:30;100140.16;;;27.07;47.88
31121;BME280;17770;45.966;13.632;2023-05-23T09:35:00;100137.38;;;27.08;48.39
31121;BME280;17770;45.966;13.632;2023-05-23T09:37:36;100138.84;;;27.11;47.74
31121;BME280;17770;45.966;13.632;2023-05-23T09:40:06;100138.72;;;27.12;47.97
31121;BME280;17770;45.966;13.632;2023-05-23T09:42:34;100137.56;;;27.15;48.08
31121;BME280;17770;45.966;13.632;2023-05-23T09:45:01;100134.59;;;27.18;48.33
31121;BME280;17770;45.966;13.632;2023-05-23T09:47:28;100129.00;;;27.21;48.01
31121;BME280;17770;45.966;13.632;2023-05-23T09:49:54;100129.66;;;27.23;48.18
31121;BME280;17770;45.966;13.632;2023-05-23T09:52:21;100127.69;;;27.25;48.43
31121;BME280;17770;45.966;13.632;2023-05-23T09:54:47;100124.91;;;27.26;47.84
31121;BME280;17770;45.966;13.632;2023-05-23T09:57:13;100129.09;;;27.29;48.32
31121;BME280;17770;45.966;13.632;2023-05-23T09:59:40;100124.59;;;27.29;48.19
31121;BME280;17770;45.966;13.632;2023-05-23T10:02:06;100133.22;;;27.31;47.98
31121;BME280;17770;45.966;13.632;2023-05-23T10:04:33;100128.63;;;27.33;47.97
31121;BME280;17770;45.966;13.632;2023-05-23T10:07:18;100120.34;;;27.36;48.33
31121;BME280;17770;45.966;13.632;2023-05-23T10:09:46;100123.69;;;27.38;48.75
31121;BME280;17770;45.966;13.632;2023-05-23T10:14:47;100126.00;;;27.41;47.81
31121;BME280;17770;45.966;13.632;2023-05-23T10:17:20;100123.19;;;27.43;48.62
31121;BME280;17770;45.966;13.632;2023-05-23T10:19:52;100122.72;;;27.47;48.08
31121;BME280;17770;45.966;13.632;2023-05-23T10:22:22;100122.53;;;27.49;48.12
31121;BME280;17770;45.966;13.632;2023-05-23T10:24:48;100122.09;;;27.53;48.60
31121;BME280;17770;45.966;13.632;2023-05-23T10:27:15;100121.09;;;27.54;48.04
31121;BME280;17770;45.966;13.632;2023-05-23T10:29:41;100125.38;;;27.55;47.60
31121;BME280;17770;45.966;13.632;2023-05-23T10:32:07;100122.28;;;27.60;47.57
31121;BME280;17770;45.966;13.632;2023-05-23T10:37:06;100122.50;;;27.74;47.52
31121;BME280;17770;45.966;13.632;2023-05-23T10:45:14;100118.75;;;27.85;47.61
31121;BME280;17770;45.966;13.632;2023-05-23T10:47:40;100114.91;;;27.87;46.97
31121;BME280;17770;45.966;13.632;2023-05-23T10:50:06;100110.16;;;27.91;47.32
31121;BME280;17770;45.966;13.632;2023-05-23T10:52:38;100117.94;;;27.92;47.43
31121;BME280;17770;45.966;13.632;2023-05-23T10:55:09;100106.19;;;27.95;47.17
31121;BME280;17770;45.966;13.632;2023-05-23T10:57:37;100108.53;;;27.98;47.63
31121;BME280;17770;45.966;13.632;2023-05-23T11:00:02;100103.69;;;28.01;47.82
31121;BME280;17770;45.966;13.632;2023-05-23T11:02:29;100099.91;;;28.04;47.25
31121;BME280;17770;45.966;13.632;2023-05-23T11:07:39;100103.56;;;28.11;47.63
31121;BME280;17770;45.966;13.632;2023-05-23T11:10:11;100106.75;;;28.14;48.47
31121;BME280;17770;45.966;13.632;2023-05-23T11:12:42;100103.06;;;28.15;47.82
31121;BME280;17770;45.966;13.632;2023-05-23T11:17:53;100103.09;;;28.24;48.29
31121;BME280;17770;45.966;13.632;2023-05-23T11:20:23;100098.44;;;28.26;47.52
31121;BME280;17770;45.966;13.632;2023-05-23T11:22:57;100096.31;;;28.29;47.73
31121;BME280;17770;45.966;13.632;2023-05-23T11:25:39;100106.06;;;28.29;47.40
31121;BME280;17770;45.966;13.632;2023-05-23T11:28:06;100094.63;;;28.28;47.01
31121;BME280;17770;45.966;13.632;2023-05-23T11:30:32;100096.31;;;28.29;46.98
31121;BME280;17770;45.966;13.632;2023-05-23T11:32:59;100091.81;;;28.30;47.27
31121;BME280;17770;45.966;13.632;2023-05-23T11:35:25;100096.63;;;28.34;47.43
31121;BME280;17770;45.966;13.632;2023-05-23T11:37:52;100097.94;;;28.38;48.04
31121;BME280;17770;45.966;13.632;2023-05-23T11:42:57;100097.47;;;28.43;47.57
31121;BME280;17770;45.966;13.632;2023-05-23T11:45:23;100089.34;;;28.44;47.13
31121;BME280;17770;45.966;13.632;2023-05-23T11:47:49;100097.16;;;28.46;47.05
31121;BME280;17770;45.966;13.632;2023-05-23T11:50:15;100103.75;;;28.42;46.10
31121;BME280;17770;45.966;13.632;2023-05-23T11:52:41;100089.34;;;28.44;46.10
31121;BME280;17770;45.966;13.632;2023-05-23T11:55:08;100106.09;;;28.45;45.58
31121;BME280;17770;45.966;13.632;2023-05-23T11:57:37;100104.09;;;28.47;46.43
31121;BME280;17770;45.966;13.632;2023-05-23T12:00:05;100109.25;;;28.48;46.02
31121;BME280;17770;45.966;13.632;2023-05-23T12:02:31;100103.78;;;28.50;46.25
31121;BME280;17770;45.966;13.632;2023-05-23T12:04:56;100098.31;;;28.51;46.75
31121;BME280;17770;45.966;13.632;2023-05-23T12:07:22;100099.81;;;28.54;47.80
31121;BME280;17770;45.966;13.632;2023-05-23T12:09:48;100087.06;;;28.57;47.08
31121;BME280;17770;45.966;13.632;2023-05-23T12:12:14;100098.16;;;28.61;46.60
31121;BME280;17770;45.966;13.632;2023-05-23T12:14:40;100098.16;;;28.61;46.84
31121;BME280;17770;45.966;13.632;2023-05-23T12:17:12;100101.16;;;28.66;46.56
31121;BME280;17770;45.966;13.632;2023-05-23T12:19:38;100096.81;;;28.65;45.48
31121;BME280;17770;45.966;13.632;2023-05-23T12:22:04;100097.50;;;28.67;45.65
31121;BME280;17770;45.966;13.632;2023-05-23T12:24:31;100099.13;;;28.68;45.98
31121;BME280;17770;45.966;13.632;2023-05-23T12:26:58;100103.31;;;28.70;46.02
31121;BME280;17770;45.966;13.632;2023-05-23T12:29:30;100099.47;;;28.73;46.09
31121;BME280;17770;45.966;13.632;2023-05-23T12:31:58;100091.34;;;28.74;45.93
31121;BME280;17770;45.966;13.632;2023-05-23T12:34:23;100079.56;;;28.77;47.33
31121;BME280;17770;45.966;13.632;2023-05-23T12:36:53;100077.41;;;28.80;46.29
31121;BME280;17770;45.966;13.632;2023-05-23T12:39:23;100090.34;;;28.83;46.04
31121;BME280;17770;45.966;13.632;2023-05-23T12:41:49;100083.22;;;28.84;45.02
31121;BME280;17770;45.966;13.632;2023-05-23T12:44:15;100079.38;;;28.86;45.88
31121;BME280;17770;45.966;13.632;2023-05-23T12:46:41;100078.41;;;28.87;45.29
31121;BME280;17770;45.966;13.632;2023-05-23T12:49:07;100086.03;;;28.90;46.88
31121;BME280;17770;45.966;13.632;2023-05-23T12:51:33;100083.69;;;28.95;48.05
31121;BME280;17770;45.966;13.632;2023-05-23T12:53:59;100083.34;;;28.98;46.71
31121;BME280;17770;45.966;13.632;2023-05-23T12:56:25;100085.88;;;28.84;45.53
31121;BME280;17770;45.966;13.632;2023-05-23T12:58:51;100084.19;;;28.83;46.47
31121;BME280;17770;45.966;13.632;2023-05-23T13:01:18;100090.50;;;28.82;45.14
31121;BME280;17770;45.966;13.632;2023-05-23T13:03:44;100089.50;;;28.83;45.32
31121;BME280;17770;45.966;13.632;2023-05-23T13:06:10;100092.00;;;28.84;45.81
31121;BME280;17770;45.966;13.632;2023-05-23T13:08:36;100091.00;;;28.85;46.93
31121;BME280;17770;45.966;13.632;2023-05-23T13:11:02;100092.31;;;28.89;47.32
31121;BME280;17770;45.966;13.632;2023-05-23T13:13:28;100084.03;;;28.92;45.71
31121;BME280;17770;45.966;13.632;2023-05-23T13:15:55;100086.03;;;28.90;45.30
31121;BME280;17770;45.966;13.632;2023-05-23T13:18:21;100084.03;;;28.92;45.91